Time;durP1;ratioP1;P1;durP2;ratioP2;P2;SDS_P1;SDS_P2;PMS_P1;PMS_P2;Temp;Humidity;BMP_temperature;BMP_pressure;BME280_temperature;BME280_humidity;BME280_pressure;Samples;Min_cycle;Max_cycle;Signal;HPM_P1;HPM_P2
2023/11/11 00:02:16;;;;;;;;;;;;;;;29.85;22.45;96749.28;5080334;28;19920;-94
2023/11/11 00:04:42;;;;;;;;;;;;;;;29.85;22.61;96747.22;5075877;28;19970;-93
2023/11/11 00:07:09;;;;;;;;;;;;;;;29.80;22.59;96744.38;5090610;28;19972;-93
2023/11/11 00:09:35;;;;;;;;;;;;;;;29.71;22.60;96753.03;5073700;28;20006;-93
2023/11/11 00:12:02;;;;;;;;;;;;;;;29.73;22.82;96750.47;5086828;28;19920;-94
2023/11/11 00:14:28;;;;;;;;;;;;;;;29.79;22.54;96745.63;5093675;28;19920;-94
2023/11/11 00:16:54;;;;;;;;;;;;;;;29.83;22.75;96746.94;5091410;28;19944;-94
2023/11/11 00:19:20;;;;;;;;;;;;;;;29.87;22.65;96752.41;5084759;28;19927;-95
2023/11/11 00:21:49;;;;;;;;;;;;;;;29.85;22.79;96752.13;5087634;28;19931;-93
2023/11/11 00:24:15;;;;;;;;;;;;;;;29.54;23.27;96752.91;5094363;28;19969;-94
2023/11/11 00:26:44;;;;;;;;;;;;;;;29.54;23.07;96755.75;5083203;28;19939;-93
2023/11/11 00:29:10;;;;;;;;;;;;;;;29.58;23.01;96759.09;5090591;28;19916;-93
2023/11/11 00:31:36;;;;;;;;;;;;;;;29.52;22.95;96755.47;5094654;28;19999;-94
2023/11/11 00:34:02;;;;;;;;;;;;;;;29.55;23.13;96754.44;5091385;28;19927;-94
2023/11/11 00:36:28;;;;;;;;;;;;;;;29.61;23.12;96748.84;5094597;28;19973;-93
2023/11/11 00:38:54;;;;;;;;;;;;;;;29.72;22.86;96754.56;5094825;28;19952;-94
2023/11/11 00:41:20;;;;;;;;;;;;;;;29.29;23.24;96750.91;5105746;28;19924;-94
2023/11/11 00:43:47;;;;;;;;;;;;;;;29.27;23.39;96750.63;5096289;28;20018;-93
2023/11/11 00:46:13;;;;;;;;;;;;;;;29.22;23.45;96752.13;5103092;28;19916;-93
2023/11/11 00:48:41;;;;;;;;;;;;;;;29.05;23.62;96753.22;5094904;28;19921;-93
2023/11/11 00:51:07;;;;;;;;;;;;;;;29.14;23.56;96755.88;5103419;28;19920;-94
2023/11/11 00:53:33;;;;;;;;;;;;;;;29.28;23.15;96755.78;5092546;28;19921;-95
2023/11/11 00:56:00;;;;;;;;;;;;;;;29.34;23.11;96753.78;5104556;28;19996;-93
2023/11/11 00:58:26;;;;;;;;;;;;;;;29.32;22.81;96752.72;5100805;28;19998;-93
2023/11/11 01:00:52;;;;;;;;;;;;;;;29.15;23.13;96752.53;5103618;28;19921;-93
2023/11/11 01:03:18;;;;;;;;;;;;;;;29.03;23.24;96750.91;5112238;28;19927;-95
2023/11/11 01:05:44;;;;;;;;;;;;;;;28.92;23.32;96750.78;5094313;28;19971;-94
2023/11/11 01:08:11;;;;;;;;;;;;;;;28.85;23.34;96748.41;5097172;28;19970;-93
2023/11/11 01:10:37;;;;;;;;;;;;;;;28.69;23.46;96755.44;5065995;28;19920;-93
2023/11/11 01:13:04;;;;;;;;;;;;;;;28.85;23.42;96754.06;5091492;28;20298;-94
2023/11/11 01:15:30;;;;;;;;;;;;;;;28.87;23.64;96754.31;5098375;28;19966;-93
2023/11/11 01:17:56;;;;;;;;;;;;;;;28.89;23.33;96745.38;5093729;28;20007;-93
2023/11/11 01:20:23;;;;;;;;;;;;;;;28.79;23.31;96750.41;5096816;28;19925;-94
2023/11/11 01:22:49;;;;;;;;;;;;;;;28.91;23.25;96740.78;5108738;28;19978;-94
2023/11/11 01:25:15;;;;;;;;;;;;;;;28.86;23.37;96737.88;5116326;28;20379;-96
2023/11/11 01:27:42;;;;;;;;;;;;;;;28.64;23.50;96741.25;5102630;28;19927;-93
2023/11/11 01:30:08;;;;;;;;;;;;;;;28.74;23.06;96737.00;5103631;28;19967;-95
2023/11/11 01:32:34;;;;;;;;;;;;;;;28.63;23.14;96736.88;5098536;28;19920;-93
2023/11/11 01:35:00;;;;;;;;;;;;;;;28.59;23.50;96736.34;5098722;28;19946;-95
2023/11/11 01:37:26;;;;;;;;;;;;;;;28.38;23.50;96729.13;5077873;28;19962;-93
2023/11/11 01:39:52;;;;;;;;;;;;;;;28.44;23.57;96727.91;5109859;28;20007;-94
2023/11/11 01:42:18;;;;;;;;;;;;;;;28.39;23.41;96734.28;5102963;28;19920;-94
2023/11/11 01:44:44;;;;;;;;;;;;;;;28.49;23.33;96730.03;5093779;28;19921;-94
2023/11/11 01:47:11;;;;;;;;;;;;;;;28.49;23.32;96724.38;5097674;28;20011;-94
2023/11/11 01:49:37;;;;;;;;;;;;;;;28.41;23.61;96720.44;5104793;28;20066;-94
2023/11/11 01:52:05;;;;;;;;;;;;;;;28.28;23.43;96720.03;5092984;28;19935;-94
2023/11/11 01:54:32;;;;;;;;;;;;;;;28.26;23.61;96713.31;5106345;28;19987;-95
2023/11/11 01:56:59;;;;;;;;;;;;;;;28.11;23.53;96713.41;5100794;28;19935;-95
2023/11/11 01:59:25;;;;;;;;;;;;;;;28.20;23.70;96713.25;5103600;28;20300;-94
2023/11/11 02:01:52;;;;;;;;;;;;;;;28.15;23.57;96713.94;5100620;28;19935;-94
2023/11/11 02:04:19;;;;;;;;;;;;;;;28.21;23.49;96717.63;5101765;28;19930;-94
2023/11/11 02:06:46;;;;;;;;;;;;;;;27.99;23.78;96709.66;5076950;28;19984;-93
2023/11/11 02:09:15;;;;;;;;;;;;;;;27.85;23.94;96709.69;5100392;28;19920;-95
2023/11/11 02:11:41;;;;;;;;;;;;;;;27.70;23.99;96709.72;5105750;28;19927;-94
2023/11/11 02:14:10;;;;;;;;;;;;;;;27.36;24.49;96705.63;5099392;28;19920;-94
2023/11/11 02:16:36;;;;;;;;;;;;;;;27.41;24.48;96704.19;5091818;28;19991;-95
2023/11/11 02:19:02;;;;;;;;;;;;;;;27.62;24.14;96708.59;5071783;28;19942;-94
2023/11/11 02:21:31;;;;;;;;;;;;;;;27.53;24.27;96703.09;5101612;28;19928;-94
2023/11/11 02:24:02;;;;;;;;;;;;;;;27.73;24.11;96705.94;5095676;28;19966;-94
2023/11/11 02:26:28;;;;;;;;;;;;;;;27.64;24.26;96705.28;5098627;28;20436;-94
2023/11/11 02:28:55;;;;;;;;;;;;;;;27.60;24.41;96705.50;5084892;28;19927;-94
2023/11/11 02:31:21;;;;;;;;;;;;;;;28.04;23.86;96706.13;5083453;28;20298;-94
2023/11/11 02:33:47;;;;;;;;;;;;;;;28.57;23.24;96708.53;5102102;28;19920;-94
2023/11/11 02:36:14;;;;;;;;;;;;;;;28.70;22.96;96699.72;5091904;28;19967;-94
2023/11/11 02:38:40;;;;;;;;;;;;;;;28.82;22.99;96686.47;5095315;28;19920;-94
2023/11/11 02:41:06;;;;;;;;;;;;;;;29.05;22.82;96674.09;5093386;28;19927;-94
2023/11/11 02:43:32;;;;;;;;;;;;;;;29.22;22.33;96678.63;5092544;28;19927;-93
2023/11/11 02:45:58;;;;;;;;;;;;;;;29.33;22.27;96672.28;5096234;28;19961;-93
2023/11/11 02:48:27;;;;;;;;;;;;;;;29.16;22.67;96668.53;5104398;28;19920;-93
2023/11/11 02:50:54;;;;;;;;;;;;;;;28.92;22.70;96674.50;5079759;28;19930;-94
2023/11/11 02:53:20;;;;;;;;;;;;;;;29.07;22.38;96669.50;5097582;28;19916;-94
2023/11/11 02:55:46;;;;;;;;;;;;;;;29.25;22.24;96674.78;5095808;28;19944;-93
2023/11/11 02:58:12;;;;;;;;;;;;;;;29.28;22.15;96673.78;5104505;28;19945;-94
2023/11/11 03:00:40;;;;;;;;;;;;;;;29.38;22.16;96674.38;5102976;28;19920;-94
2023/11/11 03:03:09;;;;;;;;;;;;;;;29.39;22.13;96673.09;5095131;28;19985;-94
2023/11/11 03:05:35;;;;;;;;;;;;;;;29.24;22.30;96683.78;5089524;28;19923;-94
2023/11/11 03:08:02;;;;;;;;;;;;;;;28.90;22.77;96682.69;5103062;28;20398;-94
2023/11/11 03:10:28;;;;;;;;;;;;;;;28.81;22.80;96682.88;5089538;28;19920;-93
2023/11/11 03:12:55;;;;;;;;;;;;;;;29.06;22.63;96682.06;5099332;28;20006;-94
2023/11/11 03:15:22;;;;;;;;;;;;;;;29.22;22.41;96666.56;5085310;28;20367;-93
2023/11/11 03:17:49;;;;;;;;;;;;;;;29.28;22.33;96682.28;5092908;28;19916;-93
2023/11/11 03:20:15;;;;;;;;;;;;;;;29.34;22.31;96679.47;5087112;28;19971;-94
2023/11/11 03:22:41;;;;;;;;;;;;;;;29.33;22.30;96677.94;5090310;28;19921;-94
2023/11/11 03:25:08;;;;;;;;;;;;;;;29.26;22.25;96676.34;5097094;28;19952;-93
2023/11/11 03:27:34;;;;;;;;;;;;;;;29.22;22.49;96672.97;5092922;28;20295;-94
2023/11/11 03:30:00;;;;;;;;;;;;;;;29.12;22.65;96680.06;5095467;28;20406;-95
2023/11/11 03:32:27;;;;;;;;;;;;;;;29.25;22.18;96676.84;5096338;28;19927;-93
2023/11/11 03:34:53;;;;;;;;;;;;;;;29.36;22.22;96672.03;5101081;28;20006;-94
2023/11/11 03:37:19;;;;;;;;;;;;;;;29.38;22.35;96663.06;5105084;28;19990;-94
2023/11/11 03:39:45;;;;;;;;;;;;;;;29.42;22.14;96655.91;5099306;28;19943;-94
2023/11/11 03:42:11;;;;;;;;;;;;;;;29.45;22.04;96648.47;5090830;28;20371;-94
2023/11/11 03:44:38;;;;;;;;;;;;;;;29.47;22.27;96653.59;5101095;28;19963;-94
2023/11/11 03:47:04;;;;;;;;;;;;;;;29.48;22.07;96650.25;5080860;28;19993;-92
2023/11/11 03:49:30;;;;;;;;;;;;;;;29.41;22.25;96660.00;5095602;28;19920;-93
2023/11/11 03:51:57;;;;;;;;;;;;;;;29.39;22.33;96658.94;5096798;28;19955;-94
2023/11/11 03:54:24;;;;;;;;;;;;;;;29.12;22.44;96656.69;5089171;28;19922;-93
2023/11/11 03:56:50;;;;;;;;;;;;;;;29.17;22.39;96651.03;5097438;28;19920;-93
2023/11/11 03:59:19;;;;;;;;;;;;;;;29.16;22.58;96646.69;5097858;28;19962;-93
2023/11/11 04:01:45;;;;;;;;;;;;;;;29.22;22.42;96647.53;5084440;28;19927;-94
2023/11/11 04:04:12;;;;;;;;;;;;;;;29.24;22.20;96642.13;5094654;28;19920;-94
2023/11/11 04:06:39;;;;;;;;;;;;;;;29.09;22.15;96638.66;5087272;28;19924;-94
2023/11/11 04:09:05;;;;;;;;;;;;;;;29.03;22.40;96646.34;5088011;28;19924;-95
2023/11/11 04:11:33;;;;;;;;;;;;;;;28.88;22.55;96639.25;5088579;28;20388;-93
2023/11/11 04:14:01;;;;;;;;;;;;;;;28.72;22.77;96640.69;5090531;28;20292;-93
2023/11/11 04:16:29;;;;;;;;;;;;;;;28.72;22.83;96635.03;5100101;28;19916;-94
2023/11/11 04:18:56;;;;;;;;;;;;;;;28.79;22.50;96637.41;5096777;28;19996;-94
2023/11/11 04:21:22;;;;;;;;;;;;;;;28.81;22.40;96632.03;5095541;28;19924;-93
2023/11/11 04:23:49;;;;;;;;;;;;;;;28.74;22.75;96636.06;5091186;28;19924;-93
2023/11/11 04:26:15;;;;;;;;;;;;;;;28.89;22.52;96633.13;5096010;28;19920;-93
2023/11/11 04:28:43;;;;;;;;;;;;;;;29.01;22.32;96631.91;5092768;28;19943;-93
2023/11/11 04:31:13;;;;;;;;;;;;;;;29.04;22.40;96628.09;5095539;28;19924;-93
2023/11/11 04:33:39;;;;;;;;;;;;;;;28.93;22.54;96619.53;5091377;28;19931;-94
2023/11/11 04:36:05;;;;;;;;;;;;;;;28.81;22.63;96620.72;5091919;28;19920;-94
2023/11/11 04:38:31;;;;;;;;;;;;;;;28.80;22.73;96621.22;5079911;28;19925;-94
2023/11/11 04:40:57;;;;;;;;;;;;;;;28.55;22.83;96612.25;5086234;28;19924;-94
2023/11/11 04:43:23;;;;;;;;;;;;;;;28.55;22.98;96617.91;5092369;28;20318;-94
2023/11/11 04:45:49;;;;;;;;;;;;;;;28.58;22.88;96613.31;5094079;28;19947;-93
2023/11/11 04:48:15;;;;;;;;;;;;;;;28.63;22.81;96613.38;5098822;28;19927;-94
2023/11/11 04:50:41;;;;;;;;;;;;;;;28.90;22.56;96622.56;5091850;28;20447;-94
2023/11/11 04:53:07;;;;;;;;;;;;;;;29.03;22.41;96620.91;5096455;28;19920;-92
2023/11/11 04:55:33;;;;;;;;;;;;;;;29.13;22.28;96624.28;5097974;28;19920;-94
2023/11/11 04:58:00;;;;;;;;;;;;;;;29.21;22.54;96620.53;5103343;28;19920;-94
2023/11/11 05:00:29;;;;;;;;;;;;;;;29.29;22.24;96627.25;5096595;28;19963;-94
2023/11/11 05:02:55;;;;;;;;;;;;;;;29.36;21.97;96626.78;5102441;28;19995;-94
2023/11/11 05:05:21;;;;;;;;;;;;;;;29.40;21.93;96633.00;5100086;28;20700;-95
2023/11/11 05:07:47;;;;;;;;;;;;;;;29.43;21.91;96631.19;5092931;28;19920;-95
2023/11/11 05:10:14;;;;;;;;;;;;;;;29.18;22.21;96623.59;5100800;28;19920;-94
2023/11/11 05:12:40;;;;;;;;;;;;;;;28.97;22.35;96624.94;5090079;28;19920;-93
2023/11/11 05:15:14;;;;;;;;;;;;;;;28.80;22.89;96636.09;5088019;28;20390;-94
2023/11/11 05:17:41;;;;;;;;;;;;;;;28.92;22.55;96629.28;5089332;28;19920;-93
2023/11/11 05:20:10;;;;;;;;;;;;;;;29.08;22.33;96630.69;5086526;28;19932;-94
2023/11/11 05:22:37;;;;;;;;;;;;;;;29.26;22.16;96633.16;5085268;28;20380;-94
2023/11/11 05:25:04;;;;;;;;;;;;;;;29.34;22.29;96637.06;5087848;28;19996;-93
2023/11/11 05:27:30;;;;;;;;;;;;;;;29.19;22.19;96636.47;5086323;28;19920;-95
2023/11/11 05:29:57;;;;;;;;;;;;;;;28.79;22.71;96631.75;5083422;28;19920;-93
2023/11/11 05:32:23;;;;;;;;;;;;;;;28.41;23.19;96632.13;5084682;28;20014;-94
2023/11/11 05:34:49;;;;;;;;;;;;;;;27.54;24.27;96636.22;5091408;28;20011;-93
2023/11/11 05:37:15;;;;;;;;;;;;;;;27.27;24.54;96634.50;5082285;28;20334;-92
2023/11/11 05:39:45;;;;;;;;;;;;;;;27.11;24.86;96640.69;5085638;28;19916;-93
2023/11/11 05:42:11;;;;;;;;;;;;;;;27.28;24.63;96634.00;5085606;28;19973;-93
2023/11/11 05:44:40;;;;;;;;;;;;;;;27.86;23.73;96638.69;5084097;28;20046;-94
2023/11/11 05:47:09;;;;;;;;;;;;;;;28.42;23.43;96633.69;5091622;28;20049;-93
2023/11/11 05:49:35;;;;;;;;;;;;;;;28.75;22.62;96634.78;5091117;28;19958;-93
2023/11/11 05:52:05;;;;;;;;;;;;;;;28.98;22.55;96632.16;5089014;28;20267;-93
2023/11/11 05:54:31;;;;;;;;;;;;;;;29.15;22.19;96642.28;5082428;28;20011;-92
2023/11/11 05:56:57;;;;;;;;;;;;;;;29.21;22.17;96642.38;5094234;28;20331;-94
2023/11/11 05:59:23;;;;;;;;;;;;;;;29.28;22.34;96647.56;5092528;28;20003;-93
2023/11/11 06:01:49;;;;;;;;;;;;;;;29.33;22.16;96653.28;5077584;28;19924;-94
2023/11/11 06:04:15;;;;;;;;;;;;;;;29.37;22.10;96645.31;5092532;28;19924;-94
2023/11/11 06:06:41;;;;;;;;;;;;;;;29.37;22.44;96650.19;5100656;28;19923;-94
2023/11/11 06:09:11;;;;;;;;;;;;;;;29.38;22.24;96652.50;5093882;28;19927;-93
2023/11/11 06:11:41;;;;;;;;;;;;;;;29.37;22.36;96656.63;5095053;28;20411;-94
2023/11/11 06:14:07;;;;;;;;;;;;;;;29.42;22.00;96661.56;5096317;28;19976;-93
2023/11/11 06:16:33;;;;;;;;;;;;;;;29.45;22.31;96654.13;5083284;28;19921;-95
2023/11/11 06:18:59;;;;;;;;;;;;;;;29.38;22.29;96649.69;5097481;28;20404;-94
2023/11/11 06:21:25;;;;;;;;;;;;;;;29.27;22.19;96655.28;5094532;28;20502;-94
2023/11/11 06:23:51;;;;;;;;;;;;;;;29.33;22.44;96666.63;5079807;28;20309;-94
2023/11/11 06:26:17;;;;;;;;;;;;;;;29.41;22.01;96674.13;5086364;28;20390;-93
2023/11/11 06:28:43;;;;;;;;;;;;;;;29.40;22.12;96675.44;5093432;28;19931;-92
2023/11/11 06:31:09;;;;;;;;;;;;;;;29.39;22.42;96673.88;5088442;28;19946;-90
2023/11/11 06:33:35;;;;;;;;;;;;;;;29.27;22.34;96677.88;5085700;28;19920;-90
2023/11/11 06:36:05;;;;;;;;;;;;;;;29.28;22.31;96673.78;5090753;28;20282;-89
2023/11/11 06:38:31;;;;;;;;;;;;;;;29.38;22.40;96677.22;5088886;28;19991;-89
2023/11/11 06:40:57;;;;;;;;;;;;;;;29.42;22.33;96678.53;5078406;28;19920;-88
2023/11/11 06:43:23;;;;;;;;;;;;;;;29.37;22.12;96675.66;5074351;28;20390;-89
2023/11/11 06:45:51;;;;;;;;;;;;;;;29.45;22.29;96673.13;5083489;28;19931;-87
2023/11/11 06:48:17;;;;;;;;;;;;;;;29.45;22.24;96675.97;5082059;28;19920;-93
2023/11/11 06:50:43;;;;;;;;;;;;;;;29.50;22.30;96675.97;5089263;28;20019;-94
2023/11/11 06:53:11;;;;;;;;;;;;;;;29.42;22.22;96672.09;5086664;28;20015;-94
2023/11/11 06:55:38;;;;;;;;;;;;;;;29.22;22.52;96675.03;5083143;28;20290;-94
2023/11/11 06:58:06;;;;;;;;;;;;;;;29.28;22.39;96679.44;5092503;28;19951;-94
2023/11/11 07:00:32;;;;;;;;;;;;;;;29.36;22.17;96677.69;5090846;28;19978;-92
2023/11/11 07:02:58;;;;;;;;;;;;;;;29.43;22.11;96673.63;5086374;28;20415;-91
2023/11/11 07:05:27;;;;;;;;;;;;;;;29.49;22.09;96682.16;5080467;28;20307;-91
2023/11/11 07:07:53;;;;;;;;;;;;;;;29.57;22.11;96672.69;5088896;28;20313;-92
2023/11/11 07:10:21;;;;;;;;;;;;;;;29.58;22.15;96664.97;5084378;28;20298;-94
2023/11/11 07:12:47;;;;;;;;;;;;;;;29.62;21.89;96665.50;5079427;28;19931;-95
2023/11/11 07:15:15;;;;;;;;;;;;;;;29.66;22.21;96668.91;5085579;28;19928;-94
2023/11/11 07:17:41;;;;;;;;;;;;;;;29.71;22.04;96670.97;5083543;28;20372;-92
2023/11/11 07:20:10;;;;;;;;;;;;;;;29.63;22.01;96675.56;5088963;28;19924;-91
2023/11/11 07:22:37;;;;;;;;;;;;;;;29.28;22.38;96667.34;5078947;28;19920;-93
2023/11/11 07:25:05;;;;;;;;;;;;;;;28.95;22.71;96670.66;5085008;28;19936;-92
2023/11/11 07:27:32;;;;;;;;;;;;;;;28.68;23.06;96676.84;5071809;28;20428;-92
2023/11/11 07:29:58;;;;;;;;;;;;;;;28.61;23.06;96663.94;5085127;28;19980;-95
2023/11/11 07:32:24;;;;;;;;;;;;;;;28.37;23.59;96666.22;5083050;28;20346;-92
2023/11/11 07:34:50;;;;;;;;;;;;;;;28.20;23.91;96673.72;5085401;28;19923;-94
2023/11/11 07:37:17;;;;;;;;;;;;;;;27.97;24.10;96669.06;5083391;28;19920;-95
2023/11/11 07:39:43;;;;;;;;;;;;;;;27.72;24.09;96664.13;5092468;28;19919;-94
2023/11/11 07:42:09;;;;;;;;;;;;;;;27.52;24.48;96659.25;5095180;28;19926;-93
2023/11/11 07:44:36;;;;;;;;;;;;;;;27.85;24.21;96659.69;5092409;28;19920;-94
2023/11/11 07:47:06;;;;;;;;;;;;;;;28.02;24.18;96669.19;5098085;28;19957;-94
2023/11/11 07:49:33;;;;;;;;;;;;;;;28.08;24.00;96664.38;5097355;28;19931;-95
2023/11/11 07:52:01;;;;;;;;;;;;;;;28.08;23.94;96664.38;5096433;28;19924;-95
2023/11/11 07:54:27;;;;;;;;;;;;;;;28.43;23.56;96666.28;5097504;28;19924;-94
2023/11/11 07:56:54;;;;;;;;;;;;;;;28.69;23.46;96658.63;5090518;28;19920;-93
2023/11/11 07:59:21;;;;;;;;;;;;;;;29.02;23.22;96656.09;5087060;28;19969;-94
2023/11/11 08:01:47;;;;;;;;;;;;;;;29.21;22.89;96656.50;5093017;28;19943;-95
2023/11/11 08:04:13;;;;;;;;;;;;;;;29.38;22.89;96660.25;5085485;28;19927;-95
2023/11/11 08:06:39;;;;;;;;;;;;;;;29.36;22.37;96652.25;5075793;28;20092;-91
2023/11/11 08:09:09;;;;;;;;;;;;;;;29.14;23.11;96663.38;5075259;28;19921;-91
2023/11/11 08:11:36;;;;;;;;;;;;;;;28.79;23.54;96667.69;5084522;28;19924;-91
2023/11/11 08:14:04;;;;;;;;;;;;;;;28.92;23.38;96654.72;5077996;28;19974;-91
2023/11/11 08:16:30;;;;;;;;;;;;;;;29.21;23.05;96659.34;5078078;28;19931;-92
2023/11/11 08:18:57;;;;;;;;;;;;;;;29.45;22.90;96664.66;5090295;28;20011;-93
2023/11/11 08:21:29;;;;;;;;;;;;;;;29.46;22.21;96658.47;5087954;28;20383;-91
2023/11/11 08:23:55;;;;;;;;;;;;;;;29.49;22.78;96653.88;5085229;28;20383;-92
2023/11/11 08:26:22;;;;;;;;;;;;;;;29.59;22.92;96661.66;5087381;28;20028;-92
2023/11/11 08:28:48;;;;;;;;;;;;;;;29.68;22.35;96660.66;5088257;28;19943;-91
2023/11/11 08:31:14;;;;;;;;;;;;;;;29.63;22.55;96661.41;5087083;28;19924;-92
2023/11/11 08:33:40;;;;;;;;;;;;;;;29.70;22.69;96649.63;5088059;28;19920;-92
2023/11/11 08:36:07;;;;;;;;;;;;;;;29.59;22.66;96649.56;5089587;28;20299;-92
2023/11/11 08:38:33;;;;;;;;;;;;;;;29.29;22.99;96649.88;5090928;28;19959;-93
2023/11/11 08:41:00;;;;;;;;;;;;;;;29.28;22.91;96650.41;5084309;28;19924;-91
2023/11/11 08:43:26;;;;;;;;;;;;;;;29.34;22.88;96659.69;5086120;28;19920;-89
2023/11/11 08:45:53;;;;;;;;;;;;;;;29.21;23.13;96660.13;5091219;28;19923;-92
2023/11/11 08:48:19;;;;;;;;;;;;;;;29.20;23.44;96658.56;5083785;28;19989;-92
2023/11/11 08:50:45;;;;;;;;;;;;;;;29.29;23.19;96652.72;5070254;28;19974;-95
2023/11/11 08:53:11;;;;;;;;;;;;;;;29.31;23.07;96652.97;5082543;28;19923;-94
2023/11/11 08:55:37;;;;;;;;;;;;;;;29.23;23.23;96656.78;5085840;28;19958;-95
2023/11/11 08:58:05;;;;;;;;;;;;;;;29.16;23.52;96646.69;5097817;28;19916;-96
2023/11/11 09:00:33;;;;;;;;;;;;;;;29.30;23.35;96659.16;5089720;28;19921;-95
2023/11/11 09:03:00;;;;;;;;;;;;;;;29.34;23.25;96663.28;5079468;28;19920;-91
2023/11/11 09:05:26;;;;;;;;;;;;;;;29.51;22.78;96656.97;5075524;28;19921;-93
2023/11/11 09:07:52;;;;;;;;;;;;;;;29.57;22.74;96654.97;5083605;28;20439;-93
2023/11/11 09:10:20;;;;;;;;;;;;;;;29.42;23.03;96661.56;5084803;28;19917;-88
2023/11/11 09:12:48;;;;;;;;;;;;;;;29.08;23.63;96665.38;5082581;28;20459;-92
2023/11/11 09:15:16;;;;;;;;;;;;;;;29.13;23.62;96658.22;5087016;28;19927;-90
2023/11/11 09:17:43;;;;;;;;;;;;;;;28.91;23.85;96660.88;5082077;28;19950;-91
2023/11/11 09:20:10;;;;;;;;;;;;;;;28.70;24.22;96663.00;5083274;28;19933;-91
2023/11/11 09:22:36;;;;;;;;;;;;;;;28.54;24.27;96655.88;5085491;28;20394;-91
2023/11/11 09:25:05;;;;;;;;;;;;;;;28.42;24.48;96665.53;5092283;28;19923;-93
2023/11/11 09:27:31;;;;;;;;;;;;;;;28.04;24.58;96660.22;5077546;28;19928;-90
2023/11/11 09:29:58;;;;;;;;;;;;;;;28.06;24.90;96652.03;5080707;28;20001;-90
2023/11/11 09:32:24;;;;;;;;;;;;;;;28.00;24.88;96651.19;5082911;28;19927;-91
2023/11/11 09:34:50;;;;;;;;;;;;;;;28.22;24.61;96654.25;5097002;28;20375;-95
2023/11/11 09:37:17;;;;;;;;;;;;;;;28.44;24.55;96656.53;5094874;28;19946;-94
2023/11/11 09:39:43;;;;;;;;;;;;;;;28.46;24.25;96648.34;5086557;28;19928;-91
2023/11/11 09:42:09;;;;;;;;;;;;;;;28.58;24.48;96658.50;5083611;28;20011;-93
2023/11/11 09:44:35;;;;;;;;;;;;;;;28.78;24.08;96647.13;5090877;28;19920;-93
2023/11/11 09:47:02;;;;;;;;;;;;;;;28.99;23.93;96653.47;5085169;28;19920;-95
2023/11/11 09:49:30;;;;;;;;;;;;;;;29.28;23.65;96654.00;5091934;28;19973;-95
2023/11/11 09:51:57;;;;;;;;;;;;;;;29.37;23.45;96642.50;5088855;28;19924;-94
2023/11/11 09:54:23;;;;;;;;;;;;;;;29.43;23.45;96646.13;5081565;28;19923;-92
2023/11/11 09:56:50;;;;;;;;;;;;;;;29.25;23.53;96649.34;5085004;28;20049;-90
2023/11/11 09:59:18;;;;;;;;;;;;;;;29.24;23.74;96644.97;5087650;28;20299;-93
2023/11/11 10:01:48;;;;;;;;;;;;;;;29.32;23.43;96642.44;5085929;28;19927;-89
2023/11/11 10:04:14;;;;;;;;;;;;;;;28.81;24.05;96643.31;5089635;28;19920;-93
2023/11/11 10:06:41;;;;;;;;;;;;;;;28.35;24.78;96637.72;5085894;28;20307;-93
2023/11/11 10:09:12;;;;;;;;;;;;;;;28.14;25.04;96641.09;5066951;28;19920;-94
2023/11/11 10:11:39;;;;;;;;;;;;;;;28.19;25.26;96641.16;5084923;28;19924;-93
2023/11/11 10:14:07;;;;;;;;;;;;;;;28.45;24.80;96638.34;5080236;28;19973;-91
2023/11/11 10:16:37;;;;;;;;;;;;;;;28.50;24.83;96638.38;5085608;28;19970;-93
2023/11/11 10:19:03;;;;;;;;;;;;;;;28.67;24.54;96636.53;5083680;28;19924;-94
2023/11/11 10:21:29;;;;;;;;;;;;;;;26.92;26.63;96631.69;5078209;28;19935;-93
2023/11/11 10:23:55;;;;;;;;;;;;;;;26.70;26.73;96634.09;5077988;28;19925;-92
2023/11/11 10:26:21;;;;;;;;;;;;;;;26.74;27.09;96629.84;5086052;28;20001;-93
2023/11/11 10:28:50;;;;;;;;;;;;;;;26.18;27.67;96632.94;5075267;28;19974;-93
2023/11/11 10:31:23;;;;;;;;;;;;;;;26.89;27.23;96623.41;5077363;28;20043;-93
2023/11/11 10:33:50;;;;;;;;;;;;;;;27.32;26.40;96623.31;5080298;28;20011;-94
2023/11/11 10:36:17;;;;;;;;;;;;;;;27.23;26.91;96617.03;5086299;28;19924;-92
2023/11/11 10:38:43;;;;;;;;;;;;;;;26.75;26.97;96619.34;5084758;28;19923;-93
2023/11/11 10:41:09;;;;;;;;;;;;;;;26.37;27.94;96616.63;5079210;28;19964;-93
2023/11/11 10:43:39;;;;;;;;;;;;;;;27.32;26.84;96614.09;5088804;28;20708;-92
2023/11/11 10:46:05;;;;;;;;;;;;;;;27.64;26.33;96607.38;5058609;28;20045;-93
2023/11/11 10:48:33;;;;;;;;;;;;;;;27.95;26.26;96607.50;5084928;28;20269;-94
2023/11/11 10:51:02;;;;;;;;;;;;;;;28.14;25.48;96599.53;5075106;28;19930;-95
2023/11/11 10:53:30;;;;;;;;;;;;;;;28.37;25.34;96609.00;5076807;28;20387;-93
2023/11/11 10:55:57;;;;;;;;;;;;;;;28.98;24.90;96601.06;5087293;28;20290;-94
2023/11/11 10:58:23;;;;;;;;;;;;;;;29.05;24.14;96600.59;5073788;28;19973;-88
2023/11/11 11:00:49;;;;;;;;;;;;;;;29.10;24.32;96597.81;5083385;28;19971;-92
2023/11/11 11:03:21;;;;;;;;;;;;;;;29.04;24.36;96599.03;5088422;28;19924;-95
2023/11/11 11:05:48;;;;;;;;;;;;;;;28.29;25.12;96594.53;5089495;28;19929;-95
2023/11/11 11:08:29;;;;;;;;;;;;;;;28.05;25.73;96599.69;5090106;28;19928;-93
2023/11/11 11:10:55;;;;;;;;;;;;;;;27.84;25.79;96598.88;5086361;28;20390;-92
2023/11/11 11:13:22;;;;;;;;;;;;;;;27.65;26.17;96591.22;5080312;28;19938;-95
2023/11/11 11:15:48;;;;;;;;;;;;;;;27.79;26.15;96591.16;5088290;28;19978;-95
2023/11/11 11:18:22;;;;;;;;;;;;;;;27.67;26.35;96592.28;5085934;28;19924;-92
2023/11/11 11:20:51;;;;;;;;;;;;;;;27.43;26.80;96588.91;5065694;28;19968;-93
2023/11/11 11:23:17;;;;;;;;;;;;;;;27.50;26.70;96588.47;5072258;28;19963;-92
2023/11/11 11:25:44;;;;;;;;;;;;;;;27.59;26.60;96585.50;5060200;28;19962;-96
2023/11/11 11:28:11;;;;;;;;;;;;;;;27.87;26.12;96580.19;5061822;28;20404;-94
2023/11/11 11:30:58;;;;;;;;;;;;;;;27.93;25.80;96584.66;5063973;28;19925;-93
2023/11/11 11:33:25;;;;;;;;;;;;;;;27.86;25.74;96587.91;5068276;28;19925;-94
2023/11/11 11:35:53;;;;;;;;;;;;;;;28.18;25.67;96585.19;5065489;28;19931;-94
2023/11/11 11:38:29;;;;;;;;;;;;;;;28.70;25.23;96581.88;5065082;28;19959;-95
2023/11/11 11:40:59;;;;;;;;;;;;;;;29.08;24.73;96579.81;5063155;28;19967;-94
2023/11/11 11:43:30;;;;;;;;;;;;;;;29.26;24.50;96585.09;5060889;28;20011;-95
2023/11/11 11:46:00;;;;;;;;;;;;;;;29.53;23.74;96584.47;5065639;28;20272;-95
2023/11/11 11:48:27;;;;;;;;;;;;;;;29.39;23.84;96585.41;5073619;28;19920;-96
2023/11/11 11:51:02;;;;;;;;;;;;;;;29.54;24.05;96596.56;5076964;28;19936;-96
2023/11/11 11:53:28;;;;;;;;;;;;;;;29.24;24.00;96584.84;5079099;28;19928;-96
2023/11/11 11:55:54;;;;;;;;;;;;;;;29.05;24.36;96590.09;5070304;28;20019;-94
2023/11/11 11:58:21;;;;;;;;;;;;;;;28.10;25.51;96584.09;5065028;28;20391;-95
2023/11/11 12:00:47;;;;;;;;;;;;;;;27.79;25.88;96587.56;5064625;28;19974;-95
2023/11/11 12:03:14;;;;;;;;;;;;;;;27.36;26.29;96580.81;5073783;28;19999;-95
2023/11/11 12:05:40;;;;;;;;;;;;;;;27.81;26.12;96574.50;5064497;28;20387;-91
2023/11/11 12:08:07;;;;;;;;;;;;;;;27.71;25.98;96584.38;5077979;28;20372;-96
2023/11/11 12:10:46;;;;;;;;;;;;;;;28.08;25.63;96582.53;5072194;28;19923;-96
2023/11/11 12:13:13;;;;;;;;;;;;;;;28.36;25.22;96584.84;5067055;28;19929;-96
2023/11/11 12:15:48;;;;;;;;;;;;;;;28.56;24.71;96579.91;5066471;28;19916;-96
2023/11/11 12:18:14;;;;;;;;;;;;;;;28.05;25.32;96586.34;5071328;28;19924;-94
2023/11/11 12:20:41;;;;;;;;;;;;;;;28.36;25.21;96590.50;5078640;28;19928;-95
2023/11/11 12:23:10;;;;;;;;;;;;;;;28.59;24.44;96584.56;5080087;28;19920;-95
2023/11/11 12:25:37;;;;;;;;;;;;;;;28.51;24.82;96577.03;5064418;28;20405;-92
2023/11/11 12:28:03;;;;;;;;;;;;;;;28.62;24.42;96574.34;5083833;28;19930;-89
2023/11/11 12:30:29;;;;;;;;;;;;;;;28.72;24.14;96579.31;5097292;28;19920;-95
2023/11/11 12:33:10;;;;;;;;;;;;;;;28.80;24.28;96568.31;5086801;28;19924;-94
2023/11/11 12:35:38;;;;;;;;;;;;;;;29.02;24.30;96570.53;5082312;28;19920;-94
2023/11/11 12:38:24;;;;;;;;;;;;;;;29.09;24.04;96570.84;5088429;28;19967;-94
2023/11/11 12:40:51;;;;;;;;;;;;;;;29.16;23.90;96572.41;5068772;28;19924;-93
2023/11/11 12:43:17;;;;;;;;;;;;;;;29.26;23.90;96568.13;5082953;28;20007;-95
2023/11/11 12:45:47;;;;;;;;;;;;;;;29.07;23.82;96576.22;5086557;28;20071;-96
2023/11/11 12:48:16;;;;;;;;;;;;;;;28.86;24.50;96571.19;5088268;28;19920;-93